Lahaina, HI (96761)

8:21 PM HST on April 20, 2015 (GMT -1000)
puamana | | Change Station
CLOSE
Current Station
Personal Weather Station
Location: Lahaina, HI
Elevation: 36 ft
Nearby Weather Stations

Elev 36 ft 20.86 °N, 156.67 °W | Updated 2 minutes ago

Mostly Cloudy
Mostly Cloudy
75.3 °F
Feels Like 77 °F
N
0.0
Wind Variable Wind from North
Gusts 0.0 mph

Today
High -- | Low -- °F
--% Chance of Precip.
Yesterday
High -- | Low -- °F
Precip. -- in
6:04 AM 6:47 PM
Waxing Crescent, 8% visible
Pressure 30.05 in
Visibility 15.0 miles
Clouds Few 1500 ft
Scattered Clouds 3500 ft
Mostly Cloudy 5500 ft
Heat Index 77 °F
Dew Point 63 °F
Humidity 65%
Rainfall 0.00 in
Snow Depth Not available.
UV 0 out of 12
Pollen Not available.
Air Quality Not available.
Flu Activity Regional
METAR PHJH 210350Z 05010G20KT 15SM VCSH FEW015 SCT035 BKN055 23/18 A3005 RMK VCSH NW LAST

More Conditions Fewer Conditions

Pressure 30.05 in
Visibility 15.0 miles
Clouds Few 1500 ft
Scattered Clouds 3500 ft
Mostly Cloudy 5500 ft
Heat Index 77 °F
Dew Point 63 °F
Humidity 65%
Rainfall 0.00 in
Snow Depth Not available.
UV 0 out of 12
Pollen Not available.
Air Quality Not available.
Flu Activity Regional
METAR PHJH 210350Z 05010G20KT 15SM VCSH FEW015 SCT035 BKN055 23/18 A3005 RMK VCSH NW LAST

More Conditions Fewer Conditions

10-Day Weather Forecast

Almanac

Astronomy

Apr. 20, 2015 Rise Set
Actual Time
Civil Twilight
Nautical Twilight
Astronomical Twilight
Moon
Length of Visible Light
Length of Day
Tomorrow will be .
, % of the Moon is Illuminated

Today's Extremes

State Highs State Lows

Community

WunderPhotos

Upload Photos

1,815,319 photos uploaded!

WunderBlogs® & News

Nearby

Air Quality

  Air Quality AQ Index Pollutant
Not available.

Snow Depth

Station Depth Elevation

Earthquake Activity

City Distance Mag. Time & Date
Minimum magnitude displayed is 2.5.

Coastal Water Temperatures

Place Temperature

Stations

Nearby Weather Stations

Station Location Temp. Windchill Dew Point Humidity Wind Precip. Elev Updated Type